sensor_id;sensor_type;location;lat;lon;timestamp;pressure;altitude;pressure_sealevel;temperature;humidity
10127;BME280;13080;42.608;23.362;2023-06-14T00:00:34;154638.00;;;13.97;100.00
10127;BME280;13080;42.608;23.362;2023-06-14T00:03:01;154639.34;;;13.97;100.00
10127;BME280;13080;42.608;23.362;2023-06-14T00:05:29;154641.94;;;13.98;100.00
10127;BME280;13080;42.608;23.362;2023-06-14T00:07:59;154649.72;;;14.01;100.00
10127;BME280;13080;42.608;23.362;2023-06-14T00:10:26;154654.94;;;14.03;100.00
10127;BME280;13080;42.608;23.362;2023-06-14T00:12:56;154653.66;;;14.03;100.00
10127;BME280;13080;42.608;23.362;2023-06-14T00:15:24;154651.06;;;14.02;100.00
10127;BME280;13080;42.608;23.362;2023-06-14T00:17:51;154648.44;;;14.01;100.00
10127;BME280;13080;42.608;23.362;2023-06-14T00:20:17;154651.06;;;14.02;100.00
10127;BME280;13080;42.608;23.362;2023-06-14T00:22:44;154648.44;;;14.01;100.00
10127;BME280;13080;42.608;23.362;2023-06-14T00:25:11;154666.66;;;14.08;100.00
10127;BME280;13080;42.608;23.362;2023-06-14T00:27:38;154665.38;;;14.07;100.00
10127;BME280;13080;42.608;23.362;2023-06-14T00:30:06;154665.38;;;14.07;100.00
10127;BME280;13080;42.608;23.362;2023-06-14T00:32:35;154661.50;;;14.06;100.00
10127;BME280;13080;42.608;23.362;2023-06-14T00:35:01;154658.84;;;14.05;100.00
10127;BME280;13080;42.608;23.362;2023-06-14T00:37:28;154647.16;;;14.00;100.00
10127;BME280;13080;42.608;23.362;2023-06-14T00:39:55;154639.34;;;13.97;100.00
10127;BME280;13080;42.608;23.362;2023-06-14T00:42:23;154638.00;;;13.97;100.00
10127;BME280;13080;42.608;23.362;2023-06-14T00:44:50;154634.13;;;13.95;100.00
10127;BME280;13080;42.608;23.362;2023-06-14T00:47:17;154627.63;;;13.92;100.00
10127;BME280;13080;42.608;23.362;2023-06-14T00:49:47;154628.94;;;13.93;100.00
10127;BME280;13080;42.608;23.362;2023-06-14T00:52:14;154626.28;;;13.92;100.00
10127;BME280;13080;42.608;23.362;2023-06-14T00:54:42;154627.63;;;13.92;100.00
10127;BME280;13080;42.608;23.362;2023-06-14T00:57:09;154627.63;;;13.92;100.00
10127;BME280;13080;42.608;23.362;2023-06-14T00:59:44;154626.28;;;13.92;100.00
10127;BME280;13080;42.608;23.362;2023-06-14T01:02:12;154632.84;;;13.95;100.00
10127;BME280;13080;42.608;23.362;2023-06-14T01:04:40;154638.00;;;13.97;100.00
10127;BME280;13080;42.608;23.362;2023-06-14T01:07:18;154638.00;;;13.97;100.00
10127;BME280;13080;42.608;23.362;2023-06-14T01:09:58;154636.72;;;13.96;100.00
10127;BME280;13080;42.608;23.362;2023-06-14T01:12:34;154635.44;;;13.96;100.00
10127;BME280;13080;42.608;23.362;2023-06-14T01:15:03;154634.13;;;13.95;100.00
10127;BME280;13080;42.608;23.362;2023-06-14T01:17:30;154630.22;;;13.93;100.00
10127;BME280;13080;42.608;23.362;2023-06-14T01:19:58;154636.72;;;13.96;100.00
10127;BME280;13080;42.608;23.362;2023-06-14T01:22:27;154635.44;;;13.96;100.00
10127;BME280;13080;42.608;23.362;2023-06-14T01:24:55;154636.72;;;13.96;100.00
10127;BME280;13080;42.608;23.362;2023-06-14T01:27:23;154632.84;;;13.95;100.00
10127;BME280;13080;42.608;23.362;2023-06-14T01:29:54;154628.94;;;13.93;100.00
10127;BME280;13080;42.608;23.362;2023-06-14T01:32:23;154630.22;;;13.93;100.00
10127;BME280;13080;42.608;23.362;2023-06-14T01:34:51;154622.41;;;13.90;100.00
10127;BME280;13080;42.608;23.362;2023-06-14T01:37:18;154627.63;;;13.92;100.00
10127;BME280;13080;42.608;23.362;2023-06-14T01:39:47;154634.13;;;13.95;100.00
10127;BME280;13080;42.608;23.362;2023-06-14T01:42:16;154628.94;;;13.93;100.00
10127;BME280;13080;42.608;23.362;2023-06-14T01:44:44;154630.22;;;13.93;100.00
10127;BME280;13080;42.608;23.362;2023-06-14T01:47:13;154623.72;;;13.91;100.00
10127;BME280;13080;42.608;23.362;2023-06-14T01:49:40;154619.78;;;13.89;100.00
10127;BME280;13080;42.608;23.362;2023-06-14T01:52:07;154621.06;;;13.90;100.00
10127;BME280;13080;42.608;23.362;2023-06-14T01:54:35;154612.00;;;13.86;100.00
10127;BME280;13080;42.608;23.362;2023-06-14T01:57:07;154604.16;;;13.83;100.00
10127;BME280;13080;42.608;23.362;2023-06-14T01:59:35;154593.78;;;13.79;100.00
10127;BME280;13080;42.608;23.362;2023-06-14T02:02:02;154575.50;;;13.72;100.00
10127;BME280;13080;42.608;23.362;2023-06-14T02:04:29;154566.44;;;13.68;100.00
10127;BME280;13080;42.608;23.362;2023-06-14T02:06:56;154550.78;;;13.62;100.00
10127;BME280;13080;42.608;23.362;2023-06-14T02:09:23;154539.09;;;13.58;100.00
10127;BME280;13080;42.608;23.362;2023-06-14T02:11:50;154528.66;;;13.54;100.00
10127;BME280;13080;42.608;23.362;2023-06-14T02:14:17;154522.16;;;13.51;100.00
10127;BME280;13080;42.608;23.362;2023-06-14T02:16:45;154514.38;;;13.48;100.00
10127;BME280;13080;42.608;23.362;2023-06-14T02:19:14;154505.25;;;13.44;100.00
10127;BME280;13080;42.608;23.362;2023-06-14T02:21:41;154490.94;;;13.39;100.00
10127;BME280;13080;42.608;23.362;2023-06-14T02:24:08;154484.41;;;13.36;100.00
10127;BME280;13080;42.608;23.362;2023-06-14T02:26:35;154488.31;;;13.38;100.00
10127;BME280;13080;42.608;23.362;2023-06-14T02:29:03;154474.03;;;13.32;100.00
10127;BME280;13080;42.608;23.362;2023-06-14T02:31:30;154470.13;;;13.30;100.00
10127;BME280;13080;42.608;23.362;2023-06-14T02:33:58;154479.25;;;13.34;100.00
10127;BME280;13080;42.608;23.362;2023-06-14T02:36:25;154481.81;;;13.35;100.00
10127;BME280;13080;42.608;23.362;2023-06-14T02:38:52;154474.03;;;13.32;100.00
10127;BME280;13080;42.608;23.362;2023-06-14T02:41:19;154483.09;;;13.36;100.00
10127;BME280;13080;42.608;23.362;2023-06-14T02:43:46;154493.53;;;13.40;100.00
10127;BME280;13080;42.608;23.362;2023-06-14T02:46:13;154496.16;;;13.41;100.00
10127;BME280;13080;42.608;23.362;2023-06-14T02:48:40;154503.94;;;13.44;100.00
10127;BME280;13080;42.608;23.362;2023-06-14T02:51:08;154506.53;;;13.45;100.00
10127;BME280;13080;42.608;23.362;2023-06-14T02:53:35;154515.66;;;13.48;100.00
10127;BME280;13080;42.608;23.362;2023-06-14T02:56:02;154518.25;;;13.49;100.00
10127;BME280;13080;42.608;23.362;2023-06-14T02:58:30;154524.78;;;13.52;100.00
10127;BME280;13080;42.608;23.362;2023-06-14T03:00:58;154543.00;;;13.59;100.00
10127;BME280;13080;42.608;23.362;2023-06-14T03:03:28;154541.72;;;13.59;100.00
10127;BME280;13080;42.608;23.362;2023-06-14T03:05:55;154553.44;;;13.63;100.00
10127;BME280;13080;42.608;23.362;2023-06-14T03:08:23;154557.28;;;13.65;100.00
10127;BME280;13080;42.608;23.362;2023-06-14T03:10:52;154557.28;;;13.65;100.00
10127;BME280;13080;42.608;23.362;2023-06-14T03:13:19;154572.94;;;13.71;100.00
10127;BME280;13080;42.608;23.362;2023-06-14T03:15:47;154574.22;;;13.71;100.00
10127;BME280;13080;42.608;23.362;2023-06-14T03:18:15;154575.50;;;13.72;100.00
10127;BME280;13080;42.608;23.362;2023-06-14T03:20:42;154584.66;;;13.76;100.00
10127;BME280;13080;42.608;23.362;2023-06-14T03:23:12;154588.56;;;13.77;100.00
10127;BME280;13080;42.608;23.362;2023-06-14T03:25:40;154591.16;;;13.78;100.00
10127;BME280;13080;42.608;23.362;2023-06-14T03:28:07;154599.00;;;13.81;100.00
10127;BME280;13080;42.608;23.362;2023-06-14T03:30:34;154606.78;;;13.84;100.00
10127;BME280;13080;42.608;23.362;2023-06-14T03:33:01;154619.78;;;13.89;100.00
10127;BME280;13080;42.608;23.362;2023-06-14T03:35:28;154622.41;;;13.90;100.00
10127;BME280;13080;42.608;23.362;2023-06-14T03:37:55;154634.13;;;13.95;100.00
10127;BME280;13080;42.608;23.362;2023-06-14T03:40:22;154640.63;;;13.98;100.00
10127;BME280;13080;42.608;23.362;2023-06-14T03:42:53;154652.34;;;14.02;100.00
10127;BME280;13080;42.608;23.362;2023-06-14T03:45:20;154664.06;;;14.07;100.00
10127;BME280;13080;42.608;23.362;2023-06-14T03:47:47;154675.78;;;14.11;100.00
10127;BME280;13080;42.608;23.362;2023-06-14T03:50:14;154675.78;;;14.11;100.00
10127;BME280;13080;42.608;23.362;2023-06-14T03:52:41;154679.72;;;14.13;100.00
10127;BME280;13080;42.608;23.362;2023-06-14T03:55:09;154687.50;;;14.16;100.00
10127;BME280;13080;42.608;23.362;2023-06-14T03:57:38;154686.22;;;14.16;100.00
10127;BME280;13080;42.608;23.362;2023-06-14T04:00:08;154700.50;;;14.21;100.00
10127;BME280;13080;42.608;23.362;2023-06-14T04:02:36;154717.44;;;14.28;100.00
10127;BME280;13080;42.608;23.362;2023-06-14T04:05:03;154724.00;;;14.30;100.00
10127;BME280;13080;42.608;23.362;2023-06-14T04:07:30;154733.09;;;14.34;100.00
10127;BME280;13080;42.608;23.362;2023-06-14T04:09:57;154742.22;;;14.38;100.00
10127;BME280;13080;42.608;23.362;2023-06-14T04:12:24;154751.31;;;14.41;100.00
10127;BME280;13080;42.608;23.362;2023-06-14T04:14:51;154773.44;;;14.50;100.00
10127;BME280;13080;42.608;23.362;2023-06-14T04:17:19;154791.72;;;14.57;100.00
10127;BME280;13080;42.608;23.362;2023-06-14T04:19:45;154810.00;;;14.64;100.00
10127;BME280;13080;42.608;23.362;2023-06-14T04:22:13;154828.22;;;14.71;100.00
10127;BME280;13080;42.608;23.362;2023-06-14T04:24:39;154837.31;;;14.75;100.00
10127;BME280;13080;42.608;23.362;2023-06-14T04:27:07;154855.59;;;14.82;100.00
10127;BME280;13080;42.608;23.362;2023-06-14T04:29:34;154871.19;;;14.88;100.00
10127;BME280;13080;42.608;23.362;2023-06-14T04:32:01;154876.41;;;14.90;100.00
10127;BME280;13080;42.608;23.362;2023-06-14T04:34:29;154881.63;;;14.92;100.00
10127;BME280;13080;42.608;23.362;2023-06-14T04:36:59;154890.78;;;14.96;100.00
10127;BME280;13080;42.608;23.362;2023-06-14T04:39:26;154903.78;;;15.01;100.00
10127;BME280;13080;42.608;23.362;2023-06-14T04:41:53;154898.56;;;14.99;100.00
10127;BME280;13080;42.608;23.362;2023-06-14T04:44:23;154901.19;;;15.00;100.00
10127;BME280;13080;42.608;23.362;2023-06-14T04:46:55;154919.44;;;15.07;100.00
10127;BME280;13080;42.608;23.362;2023-06-14T04:49:22;154922.03;;;15.08;100.00
10127;BME280;13080;42.608;23.362;2023-06-14T04:51:50;154959.84;;;15.23;100.00
10127;BME280;13080;42.608;23.362;2023-06-14T04:54:23;154996.31;;;15.37;100.00
10127;BME280;13080;42.608;23.362;2023-06-14T04:56:50;155041.91;;;15.55;100.00
10127;BME280;13080;42.608;23.362;2023-06-14T04:59:17;155091.53;;;15.75;100.00
10127;BME280;13080;42.608;23.362;2023-06-14T05:01:43;155125.44;;;15.88;100.00
10127;BME280;13080;42.608;23.362;2023-06-14T05:04:13;155173.66;;;16.07;100.00
10127;BME280;13080;42.608;23.362;2023-06-14T05:06:41;155172.34;;;16.07;100.00
10127;BME280;13080;42.608;23.362;2023-06-14T05:09:11;155194.53;;;16.15;100.00
10127;BME280;13080;42.608;23.362;2023-06-14T05:11:38;155219.28;;;16.25;100.00
10127;BME280;13080;42.608;23.362;2023-06-14T05:14:07;155215.41;;;16.24;100.00
10127;BME280;13080;42.608;23.362;2023-06-14T05:16:34;155207.56;;;16.20;100.00
10127;BME280;13080;42.608;23.362;2023-06-14T05:19:01;155214.06;;;16.23;100.00
10127;BME280;13080;42.608;23.362;2023-06-14T05:21:28;155227.13;;;16.28;100.00
10127;BME280;13080;42.608;23.362;2023-06-14T05:23:54;155268.88;;;16.45;100.00
10127;BME280;13080;42.608;23.362;2023-06-14T05:26:23;155279.31;;;16.49;100.00
10127;BME280;13080;42.608;23.362;2023-06-14T05:28:54;155291.03;;;16.53;100.00
10127;BME280;13080;42.608;23.362;2023-06-14T05:31:22;155300.19;;;16.57;100.00
10127;BME280;13080;42.608;23.362;2023-06-14T05:33:49;155314.50;;;16.62;100.00
10127;BME280;13080;42.608;23.362;2023-06-14T05:36:16;155288.41;;;16.52;100.00
10127;BME280;13080;42.608;23.362;2023-06-14T05:38:43;155306.72;;;16.59;100.00
10127;BME280;13080;42.608;23.362;2023-06-14T05:41:10;155293.63;;;16.54;100.00
10127;BME280;13080;42.608;23.362;2023-06-14T05:43:38;155279.31;;;16.49;100.00
10127;BME280;13080;42.608;23.362;2023-06-14T05:46:05;155292.34;;;16.54;100.00
10127;BME280;13080;42.608;23.362;2023-06-14T05:48:32;155308.00;;;16.60;100.00
10127;BME280;13080;42.608;23.362;2023-06-14T05:50:58;155340.63;;;16.73;100.00
10127;BME280;13080;42.608;23.362;2023-06-14T05:53:25;155434.59;;;17.10;100.00
10127;BME280;13080;42.608;23.362;2023-06-14T05:55:52;155471.13;;;17.24;100.00
10127;BME280;13080;42.608;23.362;2023-06-14T05:58:20;155485.50;;;17.30;100.00
10127;BME280;13080;42.608;23.362;2023-06-14T06:00:48;155484.19;;;17.29;100.00
10127;BME280;13080;42.608;23.362;2023-06-14T06:03:15;155473.75;;;17.25;100.00
10127;BME280;13080;42.608;23.362;2023-06-14T06:05:42;155490.72;;;17.32;100.00
10127;BME280;13080;42.608;23.362;2023-06-14T06:08:08;155507.69;;;17.38;100.00
10127;BME280;13080;42.608;23.362;2023-06-14T06:10:36;155522.03;;;17.44;100.00
10127;BME280;13080;42.608;23.362;2023-06-14T06:13:02;155518.13;;;17.42;100.00
10127;BME280;13080;42.608;23.362;2023-06-14T06:15:29;155524.66;;;17.45;100.00
10127;BME280;13080;42.608;23.362;2023-06-14T06:17:57;155527.25;;;17.46;100.00
10127;BME280;13080;42.608;23.362;2023-06-14T06:20:24;155525.94;;;17.45;100.00
10127;BME280;13080;42.608;23.362;2023-06-14T06:22:53;155514.22;;;17.41;100.00
10127;BME280;13080;42.608;23.362;2023-06-14T06:25:20;155499.81;;;17.35;100.00
10127;BME280;13080;42.608;23.362;2023-06-14T06:27:47;155505.06;;;17.37;100.00
10127;BME280;13080;42.608;23.362;2023-06-14T06:30:14;155550.72;;;17.55;100.00
10127;BME280;13080;42.608;23.362;2023-06-14T06:32:41;155545.50;;;17.53;99.89
10127;BME280;13080;42.608;23.362;2023-06-14T06:35:09;155523.34;;;17.44;100.00
10127;BME280;13080;42.608;23.362;2023-06-14T06:37:38;155524.66;;;17.45;100.00
10127;BME280;13080;42.608;23.362;2023-06-14T06:40:05;155488.09;;;17.31;100.00
10127;BME280;13080;42.608;23.362;2023-06-14T06:42:33;155494.66;;;17.33;100.00
10127;BME280;13080;42.608;23.362;2023-06-14T06:45:00;155506.38;;;17.38;100.00
10127;BME280;13080;42.608;23.362;2023-06-14T06:47:27;155485.50;;;17.30;100.00
10127;BME280;13080;42.608;23.362;2023-06-14T06:49:53;155481.56;;;17.28;100.00
10127;BME280;13080;42.608;23.362;2023-06-14T06:52:22;155477.69;;;17.27;100.00
10127;BME280;13080;42.608;23.362;2023-06-14T06:54:48;155468.53;;;17.23;100.00
10127;BME280;13080;42.608;23.362;2023-06-14T06:57:20;155495.94;;;17.34;100.00
10127;BME280;13080;42.608;23.362;2023-06-14T06:59:48;155507.69;;;17.38;100.00
10127;BME280;13080;42.608;23.362;2023-06-14T07:02:14;155507.69;;;17.38;99.72
10127;BME280;13080;42.608;23.362;2023-06-14T07:04:41;155557.31;;;17.58;97.42
10127;BME280;13080;42.608;23.362;2023-06-14T07:07:08;155600.34;;;17.75;99.18
10127;BME280;13080;42.608;23.362;2023-06-14T07:09:36;155625.19;;;17.84;95.56
10127;BME280;13080;42.608;23.362;2023-06-14T07:12:04;155665.72;;;18.00;95.05
10127;BME280;13080;42.608;23.362;2023-06-14T07:14:31;155716.59;;;18.20;95.08
10127;BME280;13080;42.608;23.362;2023-06-14T07:16:58;155754.47;;;18.35;nan
10127;BME280;13080;42.608;23.362;2023-06-14T07:19:24;155711.41;;;18.18;93.28
10127;BME280;13080;42.608;23.362;2023-06-14T07:21:51;155734.91;;;18.27;91.97
10127;BME280;13080;42.608;23.362;2023-06-14T07:24:19;155774.06;;;18.43;93.46
10127;BME280;13080;42.608;23.362;2023-06-14T07:26:48;155811.94;;;18.58;92.06
10127;BME280;13080;42.608;23.362;2023-06-14T07:29:14;155917.84;;;18.99;94.37
10127;BME280;13080;42.608;23.362;2023-06-14T07:31:41;155955.69;;;19.14;92.51
10127;BME280;13080;42.608;23.362;2023-06-14T07:34:09;155958.34;;;19.15;88.41
10127;BME280;13080;42.608;23.362;2023-06-14T07:36:35;155912.59;;;18.97;88.23
10127;BME280;13080;42.608;23.362;2023-06-14T07:39:03;155887.75;;;18.87;89.54
10127;BME280;13080;42.608;23.362;2023-06-14T07:41:31;155903.44;;;18.94;92.79
10127;BME280;13080;42.608;23.362;2023-06-14T07:43:59;155919.13;;;19.00;91.34
10127;BME280;13080;42.608;23.362;2023-06-14T07:46:26;155953.13;;;19.13;86.57
10127;BME280;13080;42.608;23.362;2023-06-14T07:48:53;156055.06;;;19.53;86.67
10127;BME280;13080;42.608;23.362;2023-06-14T07:51:20;156129.63;;;19.82;85.83
10127;BME280;13080;42.608;23.362;2023-06-14T07:53:48;156171.44;;;19.99;85.00
10127;BME280;13080;42.608;23.362;2023-06-14T07:56:14;156211.97;;;20.14;84.65
10127;BME280;13080;42.608;23.362;2023-06-14T07:58:41;156274.72;;;20.39;86.22
10127;BME280;13080;42.608;23.362;2023-06-14T08:01:09;156308.75;;;20.52;82.46
10127;BME280;13080;42.608;23.362;2023-06-14T08:03:37;156357.16;;;20.71;77.90
10127;BME280;13080;42.608;23.362;2023-06-14T08:06:04;156367.63;;;20.75;77.19
10127;BME280;13080;42.608;23.362;2023-06-14T08:08:31;156316.56;;;20.55;75.78
10127;BME280;13080;42.608;23.362;2023-06-14T08:10:58;156338.84;;;20.64;75.35
10127;BME280;13080;42.608;23.362;2023-06-14T08:13:24;156348.03;;;20.68;79.55
10127;BME280;13080;42.608;23.362;2023-06-14T08:15:51;156353.25;;;20.70;77.78
10127;BME280;13080;42.608;23.362;2023-06-14T08:18:19;156353.25;;;20.70;78.11
10127;BME280;13080;42.608;23.362;2023-06-14T08:20:46;156391.16;;;20.85;79.28
10127;BME280;13080;42.608;23.362;2023-06-14T08:23:13;156431.72;;;21.01;82.75
10127;BME280;13080;42.608;23.362;2023-06-14T08:25:41;156455.31;;;21.10;79.35
10127;BME280;13080;42.608;23.362;2023-06-14T08:28:08;156438.31;;;21.03;77.54
10127;BME280;13080;42.608;23.362;2023-06-14T08:30:34;156416.06;;;20.94;77.79
10127;BME280;13080;42.608;23.362;2023-06-14T08:33:01;156469.69;;;21.15;76.83
10127;BME280;13080;42.608;23.362;2023-06-14T08:35:29;156489.28;;;21.23;75.69
10127;BME280;13080;42.608;23.362;2023-06-14T08:37:56;156378.09;;;20.80;76.62
10127;BME280;13080;42.608;23.362;2023-06-14T08:40:23;156332.31;;;20.62;76.97
10127;BME280;13080;42.608;23.362;2023-06-14T08:42:51;156319.25;;;20.57;75.93
10127;BME280;13080;42.608;23.362;2023-06-14T08:45:18;156211.97;;;20.14;76.69
10127;BME280;13080;42.608;23.362;2023-06-14T08:47:46;156218.50;;;20.17;78.39
10127;BME280;13080;42.608;23.362;2023-06-14T08:50:19;156192.38;;;20.07;79.41
10127;BME280;13080;42.608;23.362;2023-06-14T08:52:51;156215.91;;;20.16;80.25
10127;BME280;13080;42.608;23.362;2023-06-14T08:55:20;156231.56;;;20.22;80.70
10127;BME280;13080;42.608;23.362;2023-06-14T08:57:51;156234.19;;;20.23;78.54
10127;BME280;13080;42.608;23.362;2023-06-14T09:00:20;156240.72;;;20.26;79.95
10127;BME280;13080;42.608;23.362;2023-06-14T09:02:47;156266.91;;;20.36;80.89
10127;BME280;13080;42.608;23.362;2023-06-14T09:05:14;156245.97;;;20.28;80.71
10127;BME280;13080;42.608;23.362;2023-06-14T09:07:43;156228.97;;;20.21;79.91
10127;BME280;13080;42.608;23.362;2023-06-14T09:10:13;156279.97;;;20.41;78.97
10127;BME280;13080;42.608;23.362;2023-06-14T09:12:41;156266.91;;;20.36;79.83
10127;BME280;13080;42.608;23.362;2023-06-14T09:15:09;156269.50;;;20.37;83.05
10127;BME280;13080;42.608;23.362;2023-06-14T09:17:36;156201.50;;;20.10;81.01
10127;BME280;13080;42.608;23.362;2023-06-14T09:20:03;156193.66;;;20.07;82.06
10127;BME280;13080;42.608;23.362;2023-06-14T09:22:34;156219.78;;;20.18;84.22
10127;BME280;13080;42.608;23.362;2023-06-14T09:25:01;156234.19;;;20.23;81.94
10127;BME280;13080;42.608;23.362;2023-06-14T09:27:29;156219.78;;;20.18;81.74
10127;BME280;13080;42.608;23.362;2023-06-14T09:29:56;156200.19;;;20.10;82.66
10127;BME280;13080;42.608;23.362;2023-06-14T09:32:23;156198.91;;;20.09;81.39
10127;BME280;13080;42.608;23.362;2023-06-14T09:34:49;156251.19;;;20.30;78.59
10127;BME280;13080;42.608;23.362;2023-06-14T09:37:34;156306.09;;;20.51;77.10
10127;BME280;13080;42.608;23.362;2023-06-14T09:40:04;156332.31;;;20.62;78.55
10127;BME280;13080;42.608;23.362;2023-06-14T09:42:33;156357.16;;;20.71;78.17
10127;BME280;13080;42.608;23.362;2023-06-14T09:45:03;156416.06;;;20.94;78.66
10127;BME280;13080;42.608;23.362;2023-06-14T09:47:31;156446.13;;;21.06;74.61
10127;BME280;13080;42.608;23.362;2023-06-14T09:49:57;156434.38;;;21.02;74.77
10127;BME280;13080;42.608;23.362;2023-06-14T09:52:27;156406.88;;;20.91;77.36
10127;BME280;13080;42.608;23.362;2023-06-14T09:54:54;156431.72;;;21.01;79.11
10127;BME280;13080;42.608;23.362;2023-06-14T09:57:23;156477.53;;;21.18;75.35
10127;BME280;13080;42.608;23.362;2023-06-14T09:59:57;156488.00;;;21.23;74.23
10127;BME280;13080;42.608;23.362;2023-06-14T10:02:27;156583.59;;;21.60;73.71
10127;BME280;13080;42.608;23.362;2023-06-14T10:04:58;156642.47;;;21.83;74.10
10127;BME280;13080;42.608;23.362;2023-06-14T10:07:26;156704.00;;;22.07;70.43
10127;BME280;13080;42.608;23.362;2023-06-14T10:09:57;156680.47;;;21.98;72.33
10127;BME280;13080;42.608;23.362;2023-06-14T10:12:24;156700.06;;;22.06;71.42
10127;BME280;13080;42.608;23.362;2023-06-14T10:14:53;156662.13;;;21.91;69.40
10127;BME280;13080;42.608;23.362;2023-06-14T10:17:27;156689.59;;;22.01;71.36
10127;BME280;13080;42.608;23.362;2023-06-14T10:20:11;156732.81;;;22.18;71.47
10127;BME280;13080;42.608;23.362;2023-06-14T10:22:45;156803.56;;;22.46;72.41
10127;BME280;13080;42.608;23.362;2023-06-14T10:25:26;156869.06;;;22.72;68.40
10127;BME280;13080;42.608;23.362;2023-06-14T10:28:02;156901.78;;;22.84;68.77
10127;BME280;13080;42.608;23.362;2023-06-14T10:30:30;156941.13;;;23.00;70.46
10127;BME280;13080;42.608;23.362;2023-06-14T10:33:04;156926.69;;;22.94;67.45
10127;BME280;13080;42.608;23.362;2023-06-14T10:35:32;156853.34;;;22.66;68.90
10127;BME280;13080;42.608;23.362;2023-06-14T10:38:06;156787.88;;;22.40;69.42
10127;BME280;13080;42.608;23.362;2023-06-14T10:40:34;156768.22;;;22.32;72.63
10127;BME280;13080;42.608;23.362;2023-06-14T10:43:01;156811.44;;;22.49;71.32
10127;BME280;13080;42.608;23.362;2023-06-14T10:46:15;156871.66;;;22.73;71.13
10127;BME280;13080;42.608;23.362;2023-06-14T10:48:43;156861.19;;;22.69;69.72
10127;BME280;13080;42.608;23.362;2023-06-14T10:51:17;156857.28;;;22.67;66.85
10127;BME280;13080;42.608;23.362;2023-06-14T10:53:46;156855.94;;;22.67;66.73
10127;BME280;13080;42.608;23.362;2023-06-14T10:56:26;156840.25;;;22.60;66.23
10127;BME280;13080;42.608;23.362;2023-06-14T10:58:53;156841.56;;;22.61;68.40
10127;BME280;13080;42.608;23.362;2023-06-14T11:01:31;156888.69;;;22.79;68.26
10127;BME280;13080;42.608;23.362;2023-06-14T11:04:06;156861.19;;;22.69;65.67
10127;BME280;13080;42.608;23.362;2023-06-14T11:06:46;156824.53;;;22.54;68.12
10127;BME280;13080;42.608;23.362;2023-06-14T11:09:56;156852.03;;;22.65;68.20
10127;BME280;13080;42.608;23.362;2023-06-14T11:12:31;156854.63;;;22.66;66.34
10127;BME280;13080;42.608;23.362;2023-06-14T11:14:59;156865.13;;;22.70;69.82
10127;BME280;13080;42.608;23.362;2023-06-14T11:17:28;156855.94;;;22.67;67.10
10127;BME280;13080;42.608;23.362;2023-06-14T11:20:07;156893.94;;;22.81;66.93
10127;BME280;13080;42.608;23.362;2023-06-14T11:22:39;156935.84;;;22.98;66.87
10127;BME280;13080;42.608;23.362;2023-06-14T11:25:08;156962.09;;;23.08;66.18
10127;BME280;13080;42.608;23.362;2023-06-14T11:27:35;156918.81;;;22.91;67.60
10127;BME280;13080;42.608;23.362;2023-06-14T11:30:03;156912.25;;;22.89;67.06
10127;BME280;13080;42.608;23.362;2023-06-14T11:32:32;156872.97;;;22.73;69.88
10127;BME280;13080;42.608;23.362;2023-06-14T11:34:59;156861.19;;;22.69;65.76
10127;BME280;13080;42.608;23.362;2023-06-14T11:37:27;156804.91;;;22.47;67.03
10127;BME280;13080;42.608;23.362;2023-06-14T11:39:56;156804.91;;;22.47;66.05
10127;BME280;13080;42.608;23.362;2023-06-14T11:42:24;156795.72;;;22.43;67.60
10127;BME280;13080;42.608;23.362;2023-06-14T11:44:53;156818.00;;;22.52;68.75
10127;BME280;13080;42.608;23.362;2023-06-14T11:47:20;156780.00;;;22.37;67.29
10127;BME280;13080;42.608;23.362;2023-06-14T11:49:48;156840.25;;;22.60;67.51
10127;BME280;13080;42.608;23.362;2023-06-14T11:52:16;156857.28;;;22.67;64.91
10127;BME280;13080;42.608;23.362;2023-06-14T11:54:43;156883.44;;;22.77;64.93
10127;BME280;13080;42.608;23.362;2023-06-14T11:57:10;156905.72;;;22.86;65.89
10127;BME280;13080;42.608;23.362;2023-06-14T11:59:40;156917.50;;;22.91;66.05
10127;BME280;13080;42.608;23.362;2023-06-14T12:02:09;156905.72;;;22.86;66.49
10127;BME280;13080;42.608;23.362;2023-06-14T12:04:36;156835.00;;;22.58;67.73
10127;BME280;13080;42.608;23.362;2023-06-14T12:07:11;156832.38;;;22.57;70.92
10127;BME280;13080;42.608;23.362;2023-06-14T12:09:40;156848.09;;;22.63;72.63
10127;BME280;13080;42.608;23.362;2023-06-14T12:12:09;156871.66;;;22.73;73.05
10127;BME280;13080;42.608;23.362;2023-06-14T12:14:36;156857.28;;;22.67;70.83
10127;BME280;13080;42.608;23.362;2023-06-14T12:17:06;156827.13;;;22.55;70.98
10127;BME280;13080;42.608;23.362;2023-06-14T12:19:41;156820.59;;;22.53;72.36
10127;BME280;13080;42.608;23.362;2023-06-14T12:22:12;156816.69;;;22.51;73.62
10127;BME280;13080;42.608;23.362;2023-06-14T12:24:39;156794.44;;;22.42;73.37
10127;BME280;13080;42.608;23.362;2023-06-14T12:27:08;156798.31;;;22.44;73.35
10127;BME280;13080;42.608;23.362;2023-06-14T12:29:38;156794.44;;;22.42;73.46
10127;BME280;13080;42.608;23.362;2023-06-14T12:32:05;156791.78;;;22.41;73.14
10127;BME280;13080;42.608;23.362;2023-06-14T12:34:32;156787.88;;;22.40;75.26
10127;BME280;13080;42.608;23.362;2023-06-14T12:36:59;156766.91;;;22.32;74.35
10127;BME280;13080;42.608;23.362;2023-06-14T12:39:27;156768.22;;;22.32;72.96
10127;BME280;13080;42.608;23.362;2023-06-14T12:41:54;156745.94;;;22.24;71.45